MET'MAP v2.0
soon released !

Expected late october,
this new version will be
more efficient, smarter,
and hosted on a brand new
server x3 powerfull...
...and still free !


Not compatible ?
Try the mobile version !

LOG IN : | Subscribe | Disclaimer | Who is Orbifly ? |
ICAO code :
Legend : VFR Marginal VFR IFR Intensive IFR Very Intensive IFR
Visi :
Ceiling :
>= 8 km
>= 3000ft
5 to 8 km
1000 to 3000 ft
1500m to 5 km
500 to 1000 ft
800 to 1500m
200 to 500 ft
< 800m
< 200 ft

METAR - EPWR Wroclaw - 22 Sep 2020 19:29 UTC - Data Source NOAA   


- Airport Elevation : 404 ft
- IATA code : WRO
- No reported NOTAMs.


EPWR - Wroclaw

Latest METAR recorded : 2015/08/11 08:00 EPWR 110800Z 15003KT CAVOK 28/19 Q1016
TAF TAF EPWR
Valid from the 22 at 15:00 until the 23 at 15:00 UTC


221430Z 2215/2315 18015G25KT CAVOK
BECMG 2215/2218 16007KT

Source NOAA


MET'MAP, your aeronautical weather chart ! - Copyright ORBIFLY December 2007

Programming & Development : Alexandra Zaïnal
Co-Developer : Marc-Olivier Méhu
Technical & hardware support : Manuel Goepfert
Concept & Financing : Baudouin d'Aumeries